Padus, Wisconsin
Current Conditions -  °F | °C
As of 5:35 AM on Friday 31 Oct 2014 (Local Time) from KAIG Reporting Station
Overcast Overcast  
Wind Chill: 15°   Ceiling: 2300
Heat Index: 29°   Visibility: 10mi
Dew Point: 24°   Wind: 22mph
Humidity: 83%   Direction: 350°N
Pressure: 30.21"   Gusts: 31mph
Location:  45.4387°N, 88.6036°W
Report Text: KAIG 311035Z AUTO 35019G27KT 10SM BKN023 OVC028 M02/M04 A3021 RMK AO2 T10171042
Loading
Personal Weather Stations






























Interactive Weather Map
Tropical Storm Tracking
New forecast layout! Learn more

10-Day Weather Forecast

Advertisements
Track Severe Weather on mobile